Time;durP1;ratioP1;P1;durP2;ratioP2;P2;SDS_P1;SDS_P2;PMS_P1;PMS_P2;Temp;Humidity;BMP_temperature;BMP_pressure;BME280_temperature;BME280_humidity;BME280_pressure;Samples;Min_cycle;Max_cycle;Signal;HPM_P1;HPM_P2
2022/06/27 00:00:22;;;;;;;1.77;0.47;;;26.60;92.90;;;;;;5063948;28;20339;-56
2022/06/27 00:02:48;;;;;;;2.85;0.60;;;26.60;92.90;;;;;;5062030;28;20051;-45
2022/06/27 00:05:15;;;;;;;2.97;0.73;;;26.60;92.90;;;;;;5055189;28;20025;-44
2022/06/27 00:07:42;;;;;;;11.07;0.80;;;26.60;93.00;;;;;;5063766;28;20028;-46
2022/06/27 00:10:09;;;;;;;4.82;0.80;;;26.60;93.10;;;;;;5063293;28;20021;-49
2022/06/27 00:12:37;;;;;;;3.72;0.80;;;26.50;93.30;;;;;;5063672;28;20029;-46
2022/06/27 00:15:04;;;;;;;3.20;0.68;;;26.50;93.50;;;;;;5063266;28;20021;-52
2022/06/27 00:17:31;;;;;;;4.45;0.50;;;26.40;93.50;;;;;;5063510;28;20078;-43
2022/06/27 00:19:58;;;;;;;2.63;0.60;;;26.40;93.40;;;;;;5063579;28;20212;-44
2022/06/27 00:22:26;;;;;;;4.60;0.68;;;26.40;93.40;;;;;;5062974;28;20024;-47
2022/06/27 00:24:53;;;;;;;3.58;1.08;;;26.40;93.50;;;;;;5063328;28;20076;-45
2022/06/27 00:27:20;;;;;;;4.63;0.85;;;26.40;93.70;;;;;;5063569;28;20044;-44
2022/06/27 00:29:46;;;;;;;4.72;2.00;;;26.30;93.50;;;;;;5061197;28;20021;-47
2022/06/27 00:32:13;;;;;;;5.22;2.42;;;26.40;93.90;;;;;;5062284;28;20029;-50
2022/06/27 00:34:39;;;;;;;6.13;1.60;;;26.40;94.10;;;;;;5061158;28;20091;-45
2022/06/27 00:37:06;;;;;;;1.98;1.13;;;26.30;94.00;;;;;;5062283;28;20059;-45
2022/06/27 00:39:33;;;;;;;6.00;0.82;;;26.30;94.00;;;;;;5062366;28;20060;-51
2022/06/27 00:42:02;;;;;;;4.20;0.80;;;26.30;94.00;;;;;;5061379;28;20083;-51
2022/06/27 00:44:42;;;;;;;4.45;0.80;;;26.30;94.10;;;;;;5060320;28;20023;-47
2022/06/27 00:47:10;;;;;;;3.10;0.80;;;26.30;94.10;;;;;;5060840;28;20392;-45
2022/06/27 00:49:38;;;;;;;3.03;0.90;;;26.30;94.20;;;;;;5062020;28;20028;-47
2022/06/27 00:52:07;;;;;;;7.57;1.08;;;26.30;94.30;;;;;;5063071;28;20017;-43
2022/06/27 00:54:36;;;;;;;3.63;0.80;;;26.30;94.40;;;;;;5062893;28;20017;-44
2022/06/27 00:57:03;;;;;;;4.88;0.90;;;26.30;94.30;;;;;;5062958;28;20028;-44
2022/06/27 00:59:30;;;;;;;3.63;1.00;;;26.20;94.30;;;;;;5062085;28;20288;-48
2022/06/27 01:01:57;;;;;;;2.92;0.85;;;26.20;94.50;;;;;;5062725;28;20061;-50
2022/06/27 01:04:24;;;;;;;3.50;0.73;;;26.20;94.50;;;;;;5063580;28;20036;-49
2022/06/27 01:06:54;;;;;;;7.25;1.10;;;26.20;94.50;;;;;;5062888;28;20305;-46
2022/06/27 01:09:22;;;;;;;6.70;1.58;;;26.20;94.50;;;;;;5062492;28;20072;-46
2022/06/27 01:11:49;;;;;;;6.47;1.58;;;26.10;94.50;;;;;;5061108;28;20329;-45
2022/06/27 01:14:18;;;;;;;5.55;1.48;;;26.10;94.70;;;;;;5065313;28;20087;-48
2022/06/27 01:16:46;;;;;;;6.18;2.08;;;26.10;94.80;;;;;;5065818;28;20053;-45
2022/06/27 01:19:17;;;;;;;6.03;3.10;;;26.10;94.70;;;;;;5066874;28;20032;-51
2022/06/27 01:21:55;;;;;;;23.65;4.72;;;26.10;94.70;;;;;;5066611;28;20028;-46
2022/06/27 01:24:24;;;;;;;18.85;5.30;;;26.10;94.70;;;;;;5067203;28;20237;-47
2022/06/27 01:26:52;;;;;;;25.15;5.75;;;26.10;94.80;;;;;;5066666;28;20087;-43
2022/06/27 01:29:19;;;;;;;27.17;5.28;;;26.10;94.80;;;;;;5066758;28;20063;-52
2022/06/27 01:31:46;;;;;;;16.33;4.43;;;26.10;94.80;;;;;;5066461;28;20044;-53
2022/06/27 01:34:13;;;;;;;18.17;6.25;;;26.10;94.70;;;;;;5067019;28;20257;-54
2022/06/27 01:36:43;;;;;;;16.58;7.15;;;26.10;94.70;;;;;;5066539;28;20043;-54
2022/06/27 01:39:22;;;;;;;11.10;5.10;;;26.20;94.70;;;;;;5066196;28;20029;-60
2022/06/27 01:41:53;;;;;;;7.97;4.35;;;26.20;94.80;;;;;;5066213;28;20092;-57
2022/06/27 01:44:22;;;;;;;9.23;4.45;;;26.20;94.80;;;;;;5066885;28;20325;-55
2022/06/27 01:46:52;;;;;;;12.57;4.00;;;26.20;94.90;;;;;;5066572;28;20036;-55
2022/06/27 01:49:19;;;;;;;12.52;4.20;;;26.20;94.90;;;;;;5066579;28;20025;-56
2022/06/27 01:51:49;;;;;;;6.05;3.28;;;26.20;94.80;;;;;;5066183;28;20336;-54
2022/06/27 01:54:21;;;;;;;9.07;3.00;;;26.20;94.80;;;;;;5066679;28;20099;-53
2022/06/27 01:56:49;;;;;;;6.90;3.50;;;26.20;94.80;;;;;;5065335;28;20051;-54
2022/06/27 01:59:18;;;;;;;8.52;3.15;;;26.20;94.80;;;;;;5064838;28;20021;-54
2022/06/27 02:01:45;;;;;;;7.47;2.10;;;26.20;94.80;;;;;;5065437;28;20041;-56
2022/06/27 02:04:13;;;;;;;5.68;2.40;;;26.20;94.70;;;;;;5066106;28;20020;-54
2022/06/27 02:06:42;;;;;;;8.30;2.00;;;26.20;94.60;;;;;;5065676;28;20021;-56
2022/06/27 02:09:11;;;;;;;7.25;2.03;;;26.20;94.70;;;;;;5065834;28;20040;-56
2022/06/27 02:11:39;;;;;;;4.40;1.88;;;26.20;94.80;;;;;;5065173;28;20044;-57
2022/06/27 02:14:06;;;;;;;16.55;9.95;;;26.20;94.80;;;;;;5065952;28;20028;-57
2022/06/27 02:16:32;;;;;;;15.32;8.77;;;26.20;94.80;;;;;;5065200;28;20035;-56
2022/06/27 02:18:59;;;;;;;15.60;8.38;;;26.20;94.90;;;;;;5065796;28;20201;-54
2022/06/27 02:21:29;;;;;;;9.68;6.65;;;26.20;94.90;;;;;;5065398;28;20013;-57
2022/06/27 02:23:57;;;;;;;8.35;5.38;;;26.10;94.90;;;;;;5064270;28;20096;-57
2022/06/27 02:26:31;;;;;;;10.60;5.38;;;26.20;94.90;;;;;;5065314;28;20288;-56
2022/06/27 02:28:59;;;;;;;6.85;3.95;;;26.20;94.90;;;;;;5065880;28;20041;-54
2022/06/27 02:31:27;;;;;;;7.03;4.45;;;26.10;94.90;;;;;;5065716;28;20182;-55
2022/06/27 02:33:55;;;;;;;6.22;3.72;;;26.20;94.90;;;;;;5066010;28;20063;-55
2022/06/27 02:36:33;;;;;;;6.20;4.90;;;26.20;95.00;;;;;;5065411;28;20016;-58
2022/06/27 02:39:00;;;;;;;10.15;7.25;;;26.10;95.10;;;;;;5065720;28;20028;-56
2022/06/27 02:41:29;;;;;;;15.55;10.13;;;26.10;95.10;;;;;;5064967;28;20017;-54
2022/06/27 02:44:04;;;;;;;15.82;9.50;;;26.10;95.10;;;;;;5065556;28;20070;-53
2022/06/27 02:46:32;;;;;;;12.07;7.95;;;26.10;95.10;;;;;;5065280;28;20044;-57
2022/06/27 02:49:00;;;;;;;11.13;6.43;;;26.10;95.10;;;;;;5065443;28;20052;-55
2022/06/27 02:51:32;;;;;;;8.60;5.05;;;26.10;95.10;;;;;;5064907;28;20025;-55
2022/06/27 02:54:03;;;;;;;9.80;4.35;;;26.10;95.10;;;;;;5065551;28;20039;-56
2022/06/27 02:56:31;;;;;;;6.88;3.60;;;26.10;95.10;;;;;;5064462;28;20032;-56
2022/06/27 02:59:19;;;;;;;10.13;3.30;;;26.10;95.00;;;;;;5065489;28;20124;-55
2022/06/27 03:01:49;;;;;;;11.07;3.33;;;26.10;95.00;;;;;;5064680;28;20055;-54
2022/06/27 03:04:15;;;;;;;8.18;2.85;;;26.10;95.10;;;;;;5065328;28;20037;-49
2022/06/27 03:06:44;;;;;;;10.25;2.97;;;26.10;95.20;;;;;;5064882;28;20017;-50
2022/06/27 03:09:10;;;;;;;6.75;2.60;;;26.10;95.20;;;;;;5064667;28;20074;-51
2022/06/27 03:11:37;;;;;;;7.85;2.85;;;26.10;95.10;;;;;;5064643;28;20261;-49
2022/06/27 03:14:04;;;;;;;7.38;2.22;;;26.10;95.20;;;;;;5065124;28;20092;-48
2022/06/27 03:16:30;;;;;;;8.15;2.20;;;26.10;95.20;;;;;;5064536;28;20048;-50
2022/06/27 03:18:57;;;;;;;10.23;2.30;;;26.10;95.20;;;;;;5065087;28;20029;-49
2022/06/27 03:21:23;;;;;;;4.95;1.73;;;26.10;95.10;;;;;;5064656;28;20089;-49
2022/06/27 03:23:50;;;;;;;7.38;1.98;;;26.10;95.10;;;;;;5064440;28;20024;-57
2022/06/27 03:26:18;;;;;;;3.38;1.35;;;26.10;95.10;;;;;;5063128;28;20366;-49
2022/06/27 03:28:45;;;;;;;4.57;1.15;;;26.10;95.10;;;;;;5064897;28;20036;-50
2022/06/27 03:31:12;;;;;;;6.13;1.30;;;26.10;95.10;;;;;;5064169;28;20013;-48
2022/06/27 03:33:39;;;;;;;5.82;1.10;;;26.10;95.20;;;;;;5064535;28;20028;-51
2022/06/27 03:36:06;;;;;;;4.18;1.20;;;26.10;95.20;;;;;;5064196;28;20021;-51
2022/06/27 03:38:33;;;;;;;6.07;1.20;;;26.10;95.20;;;;;;5064390;28;20196;-50
2022/06/27 03:41:00;;;;;;;5.05;1.30;;;26.10;95.20;;;;;;5062539;28;20013;-48
2022/06/27 03:43:27;;;;;;;6.60;1.10;;;26.10;95.20;;;;;;5063669;28;20170;-52
2022/06/27 03:45:54;;;;;;;5.10;1.40;;;26.10;95.30;;;;;;5060167;28;20021;-49
2022/06/27 03:51:06;;;;;;;5.88;1.20;;;26.10;95.30;;;;;;5063533;28;20213;-52
2022/06/27 03:53:33;;;;;;;3.88;0.80;;;26.10;95.50;;;;;;5064217;28;20043;-53
2022/06/27 03:55:59;;;;;;;3.33;0.90;;;26.10;95.40;;;;;;5063609;28;20016;-51
2022/06/27 03:58:26;;;;;;;4.25;1.05;;;26.10;95.30;;;;;;5064016;28;20031;-49
2022/06/27 04:00:52;;;;;;;4.90;0.88;;;26.10;95.30;;;;;;5063633;28;20044;-53
2022/06/27 04:03:19;;;;;;;7.43;1.00;;;26.10;95.30;;;;;;5064038;28;20031;-54
2022/06/27 04:05:45;;;;;;;4.85;0.90;;;26.10;95.30;;;;;;5063515;28;20032;-51
2022/06/27 04:08:12;;;;;;;5.95;1.45;;;26.20;95.40;;;;;;5063537;28;20044;-54
2022/06/27 04:10:38;;;;;;;8.65;1.38;;;26.10;95.30;;;;;;5063787;28;20020;-48
2022/06/27 04:13:05;;;;;;;5.90;1.15;;;26.10;95.30;;;;;;5043918;28;20033;-53
2022/06/27 04:15:32;;;;;;;4.38;1.10;;;26.10;95.40;;;;;;5043439;28;20071;-49
2022/06/27 04:17:58;;;;;;;3.25;1.00;;;26.10;95.30;;;;;;5043900;28;20022;-52
2022/06/27 04:20:25;;;;;;;7.38;1.33;;;26.10;95.50;;;;;;5043895;28;20022;-49
2022/06/27 04:22:52;;;;;;;5.50;0.90;;;26.10;95.30;;;;;;5043447;28;20032;-50
2022/06/27 04:25:18;;;;;;;3.25;0.90;;;26.10;95.30;;;;;;5043455;28;20017;-48
2022/06/27 04:27:45;;;;;;;3.70;0.90;;;26.10;95.30;;;;;;5043758;28;20036;-58
2022/06/27 04:30:18;;;;;;;4.70;0.93;;;26.10;95.30;;;;;;5043241;28;20313;-49
2022/06/27 04:32:48;;;;;;;4.55;1.00;;;26.10;95.30;;;;;;5043612;28;20040;-49
2022/06/27 04:35:15;;;;;;;6.13;1.08;;;26.10;95.30;;;;;;5043231;28;20034;-48
2022/06/27 04:37:43;;;;;;;3.92;0.90;;;26.10;95.20;;;;;;5043311;28;20048;-51
2022/06/27 04:40:14;;;;;;;3.65;0.90;;;26.10;95.20;;;;;;5043300;28;20421;-49
2022/06/27 04:42:43;;;;;;;3.53;0.65;;;26.10;95.20;;;;;;5044140;28;20033;-54
2022/06/27 04:45:13;;;;;;;4.78;0.60;;;26.10;95.20;;;;;;5061736;28;20123;-54
2022/06/27 04:47:41;;;;;;;6.78;0.70;;;26.10;95.20;;;;;;5064572;28;20343;-55
2022/06/27 04:50:09;;;;;;;4.30;0.70;;;26.10;95.20;;;;;;5067223;28;20040;-50
2022/06/27 04:52:40;;;;;;;5.60;0.68;;;26.00;95.10;;;;;;5067559;28;20036;-49
2022/06/27 04:55:09;;;;;;;5.03;0.77;;;26.10;95.20;;;;;;5067350;28;20021;-49
2022/06/27 04:57:37;;;;;;;7.10;0.90;;;26.10;95.20;;;;;;5067337;28;20084;-48
2022/06/27 05:00:08;;;;;;;3.13;0.55;;;26.00;95.10;;;;;;5067376;28;20060;-50
2022/06/27 05:02:35;;;;;;;4.00;0.70;;;26.10;95.10;;;;;;5063218;28;20092;-48
2022/06/27 05:05:03;;;;;;;8.80;1.10;;;26.10;95.20;;;;;;5051484;28;20376;-51
2022/06/27 05:07:31;;;;;;;3.15;0.70;;;26.00;95.20;;;;;;5060563;28;20253;-53
2022/06/27 05:09:58;;;;;;;6.38;0.90;;;26.10;95.10;;;;;;5067052;28;20075;-56
2022/06/27 05:12:26;;;;;;;4.05;1.10;;;26.10;95.10;;;;;;5067247;28;20323;-49
2022/06/27 05:14:55;;;;;;;7.03;1.00;;;26.00;95.10;;;;;;5066943;28;20060;-49
2022/06/27 05:17:26;;;;;;;6.07;0.82;;;26.00;95.20;;;;;;5066886;28;20297;-50
2022/06/27 05:19:53;;;;;;;5.60;0.80;;;26.00;95.20;;;;;;5067015;28;20059;-49
2022/06/27 05:22:20;;;;;;;4.53;0.80;;;26.00;95.30;;;;;;5066862;28;20024;-50
2022/06/27 05:24:50;;;;;;;4.57;0.80;;;26.00;95.30;;;;;;5066976;28;20036;-53
2022/06/27 05:27:17;;;;;;;3.10;0.60;;;26.00;95.20;;;;;;5066755;28;20044;-52
2022/06/27 05:29:44;;;;;;;4.78;0.60;;;26.00;95.30;;;;;;5066852;28;20030;-53
2022/06/27 05:32:11;;;;;;;2.20;0.80;;;26.00;95.30;;;;;;5066601;28;20020;-60
2022/06/27 05:34:38;;;;;;;4.35;0.82;;;26.00;95.30;;;;;;5066977;28;20127;-53
2022/06/27 05:37:05;;;;;;;6.97;0.80;;;26.00;95.30;;;;;;5066606;28;20016;-52
2022/06/27 05:39:33;;;;;;;5.60;0.77;;;26.00;95.30;;;;;;5066733;28;20025;-53
2022/06/27 05:42:00;;;;;;;3.58;0.60;;;26.00;95.30;;;;;;5066303;28;20041;-50
2022/06/27 05:44:28;;;;;;;4.95;0.70;;;26.00;95.30;;;;;;5066541;28;20025;-53
2022/06/27 05:46:56;;;;;;;3.80;0.70;;;26.00;95.30;;;;;;5066359;28;20021;-53
2022/06/27 05:49:24;;;;;;;5.22;0.80;;;26.00;95.30;;;;;;5066894;28;20025;-51
2022/06/27 05:51:52;;;;;;;4.35;0.77;;;26.00;95.40;;;;;;5066260;28;20017;-52
2022/06/27 05:54:21;;;;;;;6.30;0.88;;;26.00;95.40;;;;;;5066653;28;20029;-52
2022/06/27 05:56:48;;;;;;;5.75;0.80;;;26.00;95.40;;;;;;5066203;28;20091;-51
2022/06/27 05:59:16;;;;;;;6.45;0.68;;;26.00;95.40;;;;;;5065526;28;20088;-49
2022/06/27 06:01:45;;;;;;;4.75;0.75;;;26.00;95.40;;;;;;5065875;28;20045;-51
2022/06/27 06:04:13;;;;;;;5.50;0.88;;;25.90;95.40;;;;;;5066601;28;20032;-52
2022/06/27 06:06:43;;;;;;;6.50;1.13;;;25.90;95.50;;;;;;5066127;28;20032;-49
2022/06/27 06:09:13;;;;;;;5.57;0.80;;;25.90;95.50;;;;;;5066354;28;20309;-55
2022/06/27 06:11:40;;;;;;;4.55;0.82;;;25.90;95.50;;;;;;5066051;28;20029;-49
2022/06/27 06:14:11;;;;;;;4.38;0.88;;;25.90;95.50;;;;;;5066427;28;20083;-53
2022/06/27 06:16:37;;;;;;;6.03;0.90;;;25.90;95.50;;;;;;5065639;28;20108;-49
2022/06/27 06:19:04;;;;;;;6.32;0.80;;;25.90;95.50;;;;;;5066249;28;20021;-53
2022/06/27 06:21:31;;;;;;;2.83;0.68;;;25.90;95.50;;;;;;5065913;28;20033;-50
2022/06/27 06:23:57;;;;;;;8.25;0.90;;;25.90;95.50;;;;;;5065894;28;20183;-54
2022/06/27 06:26:25;;;;;;;4.25;0.77;;;25.90;95.60;;;;;;5065634;28;20029;-56
2022/06/27 06:28:53;;;;;;;6.93;1.00;;;25.90;95.60;;;;;;5066065;28;20038;-50
2022/06/27 06:31:23;;;;;;;5.40;0.90;;;25.90;95.60;;;;;;5065494;28;20031;-49
2022/06/27 06:33:51;;;;;;;4.28;0.75;;;25.90;95.70;;;;;;5066060;28;20027;-52
2022/06/27 06:36:21;;;;;;;8.48;1.00;;;25.90;95.70;;;;;;5065484;28;20321;-50
2022/06/27 06:38:50;;;;;;;5.82;0.88;;;25.90;95.70;;;;;;5065844;28;20079;-49
2022/06/27 06:41:17;;;;;;;5.13;1.15;;;25.90;95.70;;;;;;5065414;28;20102;-50
2022/06/27 06:43:45;;;;;;;7.68;1.00;;;25.90;95.70;;;;;;5065827;28;20025;-52
2022/06/27 06:46:15;;;;;;;7.68;1.00;;;25.90;95.70;;;;;;5065444;28;20032;-50
2022/06/27 06:48:42;;;;;;;5.65;0.75;;;25.90;95.70;;;;;;5065641;28;20032;-50
2022/06/27 06:51:09;;;;;;;5.25;0.90;;;25.90;95.80;;;;;;5065079;28;20313;-53
2022/06/27 06:53:38;;;;;;;6.13;0.80;;;25.90;95.70;;;;;;5065507;28;20220;-52
2022/06/27 06:56:05;;;;;;;4.07;0.77;;;25.90;95.70;;;;;;5065083;28;20032;-49
2022/06/27 06:58:34;;;;;;;8.60;1.02;;;25.90;95.70;;;;;;5065264;28;20087;-49
2022/06/27 07:01:01;;;;;;;7.97;0.98;;;25.90;95.70;;;;;;5064834;28;20044;-58
2022/06/27 07:03:29;;;;;;;6.78;0.90;;;25.90;95.70;;;;;;5065265;28;20114;-51
2022/06/27 07:05:56;;;;;;;5.22;1.00;;;25.80;95.60;;;;;;5064925;28;20092;-49
2022/06/27 07:08:24;;;;;;;5.68;0.85;;;25.90;95.60;;;;;;5065202;28;20092;-52
2022/06/27 07:10:51;;;;;;;8.02;1.08;;;25.80;95.60;;;;;;5064941;28;20021;-49
2022/06/27 07:13:19;;;;;;;3.75;0.50;;;25.80;95.80;;;;;;5065212;28;20070;-54
2022/06/27 07:15:45;;;;;;;13.68;1.08;;;25.80;95.60;;;;;;5064710;28;20263;-50
2022/06/27 07:18:13;;;;;;;3.85;0.70;;;25.80;95.50;;;;;;5064907;28;20029;-49
2022/06/27 07:20:39;;;;;;;5.53;0.85;;;25.80;95.50;;;;;;5064767;28;20084;-49
2022/06/27 07:23:06;;;;;;;6.43;0.82;;;25.80;95.50;;;;;;5064574;28;20025;-52
2022/06/27 07:25:35;;;;;;;5.03;0.90;;;25.80;95.60;;;;;;5064686;28;20021;-53
2022/06/27 07:28:02;;;;;;;4.88;0.75;;;25.80;95.60;;;;;;5064603;28;20092;-53
2022/06/27 07:30:29;;;;;;;5.57;0.80;;;25.80;95.60;;;;;;5064498;28;20031;-47
2022/06/27 07:32:55;;;;;;;7.75;1.20;;;25.80;95.60;;;;;;5064713;28;20033;-48
2022/06/27 07:35:22;;;;;;;5.35;0.88;;;25.80;95.60;;;;;;5064225;28;20024;-54
2022/06/27 07:37:51;;;;;;;6.22;0.80;;;25.80;95.60;;;;;;5064615;28;20025;-52
2022/06/27 07:40:24;;;;;;;6.47;0.90;;;25.80;95.70;;;;;;5064407;28;20213;-51
2022/06/27 07:42:50;;;;;;;;;;;25.80;95.80;;;;;;5064753;28;20084;-50
2022/06/27 07:45:18;;;;;;;8.20;1.10;;;25.80;95.80;;;;;;5064371;28;19900;-50
2022/06/27 07:47:48;;;;;;;5.78;0.90;;;25.80;95.80;;;;;;5064442;28;20028;-50
2022/06/27 07:53:14;;;;;;;5.07;0.95;;;25.80;95.90;;;;;;5064363;28;20079;-51
2022/06/27 07:55:52;;;;;;;6.32;0.80;;;25.70;95.90;;;;;;5064119;28;20031;-53
2022/06/27 07:58:26;;;;;;;6.28;1.05;;;25.70;95.90;;;;;;5064337;28;20201;-56
2022/06/27 08:00:53;;;;;;;7.95;1.13;;;25.80;96.00;;;;;;5063816;28;20060;-50
2022/06/27 08:06:11;;;;;;;8.77;1.23;;;25.70;95.90;;;;;;5063898;28;20024;-48
2022/06/27 08:08:41;;;;;;;5.88;0.90;;;25.70;96.00;;;;;;5063854;28;20321;-46
2022/06/27 08:11:13;;;;;;;5.90;1.13;;;25.70;96.00;;;;;;5063753;28;20266;-56
2022/06/27 08:13:40;;;;;;;4.22;1.17;;;25.70;96.00;;;;;;5064197;28;20301;-51
2022/06/27 08:16:08;;;;;;;5.70;1.10;;;25.70;96.00;;;;;;5063912;28;20269;-57
2022/06/27 08:18:38;;;;;;;8.38;1.20;;;25.70;96.10;;;;;;5064024;28;20024;-58
2022/06/27 08:21:07;;;;;;;4.05;0.80;;;25.70;96.30;;;;;;5063784;28;20025;-50
2022/06/27 08:23:36;;;;;;;6.75;1.13;;;25.70;96.20;;;;;;5063375;28;20029;-53
2022/06/27 08:26:06;;;;;;;8.18;1.05;;;25.70;96.10;;;;;;5063607;28;20221;-51
2022/06/27 08:28:39;;;;;;;10.32;1.23;;;25.70;96.10;;;;;;5063975;28;20125;-51
2022/06/27 08:31:10;;;;;;;12.13;1.23;;;25.70;96.10;;;;;;5063553;28;20017;-50
2022/06/27 08:33:39;;;;;;;5.50;1.05;;;25.70;96.10;;;;;;5064067;28;20036;-55
2022/06/27 08:36:07;;;;;;;9.93;1.10;;;25.70;96.20;;;;;;5063740;28;20029;-53
2022/06/27 08:38:40;;;;;;;7.03;1.05;;;25.70;96.20;;;;;;5064152;28;20025;-53
2022/06/27 08:41:07;;;;;;;5.53;0.95;;;25.70;96.20;;;;;;5063644;28;20321;-50
2022/06/27 08:43:35;;;;;;;7.57;1.00;;;25.70;96.20;;;;;;5064011;28;20033;-53
2022/06/27 08:46:02;;;;;;;5.63;0.88;;;25.70;96.20;;;;;;5063699;28;20094;-53
2022/06/27 08:48:29;;;;;;;5.40;1.00;;;25.70;96.20;;;;;;5063824;28;20309;-57
2022/06/27 08:50:59;;;;;;;6.63;1.10;;;25.70;96.20;;;;;;5063431;28;20302;-56
2022/06/27 08:53:26;;;;;;;6.28;0.70;;;25.70;96.20;;;;;;5063274;28;20089;-50
2022/06/27 08:55:52;;;;;;;8.55;1.10;;;25.70;96.20;;;;;;5063314;28;20108;-53
2022/06/27 08:58:19;;;;;;;5.10;1.10;;;25.70;96.20;;;;;;5063764;28;20242;-57
2022/06/27 09:00:46;;;;;;;7.47;0.98;;;25.70;96.20;;;;;;5063169;28;20053;-53
2022/06/27 09:03:17;;;;;;;8.15;0.80;;;25.70;96.30;;;;;;5063652;28;20070;-53
2022/06/27 09:05:53;;;;;;;6.45;1.00;;;25.70;96.50;;;;;;5063550;28;20017;-54
2022/06/27 09:08:20;;;;;;;5.05;1.20;;;25.70;96.30;;;;;;5063616;28;20028;-55
2022/06/27 09:10:47;;;;;;;8.00;1.08;;;25.70;96.30;;;;;;5063293;28;20080;-49
2022/06/27 09:13:16;;;;;;;8.55;1.40;;;25.70;96.30;;;;;;5063589;28;20040;-52
2022/06/27 09:15:48;;;;;;;2.90;0.80;;;25.70;96.30;;;;;;5063478;28;20047;-51
2022/06/27 09:18:23;;;;;;;8.27;1.13;;;25.70;96.30;;;;;;5063866;28;20039;-56
2022/06/27 09:20:54;;;;;;;5.43;0.90;;;25.70;96.40;;;;;;5063433;28;20025;-52
2022/06/27 09:23:39;;;;;;;6.18;1.13;;;25.70;96.40;;;;;;5063720;28;20051;-52
2022/06/27 09:26:35;;;;;;;7.28;1.10;;;25.70;96.40;;;;;;5063050;28;20312;-61
2022/06/27 09:29:11;;;;;;;7.20;1.20;;;25.70;96.40;;;;;;5063455;28;20314;-50
2022/06/27 09:31:43;;;;;;;7.40;1.50;;;25.70;96.40;;;;;;5063306;28;20021;-57
2022/06/27 09:34:19;;;;;;;5.43;0.90;;;25.70;96.50;;;;;;5065191;28;20036;-59
2022/06/27 09:36:51;;;;;;;10.57;1.80;;;25.70;96.50;;;;;;5066531;28;20087;-54
2022/06/27 09:39:45;;;;;;;9.48;1.05;;;25.60;96.50;;;;;;5067342;28;20021;-56
2022/06/27 09:42:15;;;;;;;4.60;0.93;;;25.70;96.70;;;;;;5065694;28;20270;-52
2022/06/27 09:44:44;;;;;;;8.82;1.20;;;25.70;96.50;;;;;;5066585;28;20025;-54
2022/06/27 09:47:16;;;;;;;4.05;1.00;;;25.70;96.50;;;;;;5066885;28;20028;-57
2022/06/27 09:49:49;;;;;;;9.30;1.30;;;25.70;96.70;;;;;;5066646;28;20085;-53
2022/06/27 09:52:18;;;;;;;5.13;1.05;;;25.60;96.50;;;;;;5066136;28;20037;-53
2022/06/27 09:54:47;;;;;;;7.95;1.70;;;25.70;96.50;;;;;;5066290;28;20205;-53
2022/06/27 09:57:16;;;;;;;8.48;1.48;;;25.60;96.60;;;;;;5066278;28;20336;-55
2022/06/27 09:59:44;;;;;;;5.97;1.02;;;25.60;96.60;;;;;;5066152;28;20021;-57
2022/06/27 10:02:16;;;;;;;6.63;1.27;;;25.60;96.60;;;;;;5065957;28;20272;-54
2022/06/27 10:04:51;;;;;;;8.30;1.27;;;25.60;96.50;;;;;;5066321;28;20317;-58
2022/06/27 10:07:19;;;;;;;6.72;1.30;;;25.60;96.60;;;;;;5066162;28;20032;-52
2022/06/27 10:09:51;;;;;;;9.23;1.20;;;25.60;96.60;;;;;;5066170;28;20021;-53
2022/06/27 10:12:27;;;;;;;4.53;1.17;;;25.60;96.60;;;;;;5065918;28;20328;-50
2022/06/27 10:15:14;;;;;;;8.18;1.58;;;25.60;96.60;;;;;;5065912;28;20092;-52
2022/06/27 10:17:47;;;;;;;11.75;1.40;;;25.60;96.80;;;;;;5066272;28;20032;-53
2022/06/27 10:20:20;;;;;;;12.00;1.27;;;25.60;96.60;;;;;;5065879;28;20328;-49
2022/06/27 10:23:11;;;;;;;9.30;1.13;;;25.60;96.60;;;;;;5065824;28;20029;-55
2022/06/27 10:25:44;;;;;;;8.10;1.08;;;25.50;96.60;;;;;;5065977;28;20028;-50
2022/06/27 10:28:20;;;;;;;7.15;1.50;;;25.50;96.60;;;;;;5066194;28;20316;-53
2022/06/27 10:30:49;;;;;;;11.52;1.23;;;25.50;96.60;;;;;;5065618;28;20082;-51
2022/06/27 10:33:21;;;;;;;11.68;1.35;;;25.50;96.60;;;;;;5065913;28;20028;-52
2022/06/27 10:36:10;;;;;;;8.05;1.15;;;25.50;96.50;;;;;;5065777;28;20273;-54
2022/06/27 10:38:39;;;;;;;9.63;1.00;;;25.50;96.50;;;;;;5065313;28;20331;-50
2022/06/27 10:41:11;;;;;;;12.68;1.05;;;25.50;96.50;;;;;;5065760;28;20016;-50
2022/06/27 10:43:45;;;;;;;11.15;1.45;;;25.50;96.50;;;;;;5065883;28;20044;-56
2022/06/27 10:46:11;;;;;;;13.07;1.15;;;25.50;96.50;;;;;;5064949;28;20367;-54
2022/06/27 10:48:40;;;;;;;14.50;1.00;;;25.50;96.40;;;;;;5065909;28;20254;-49
2022/06/27 10:51:26;;;;;;;8.93;1.00;;;25.50;96.40;;;;;;5065063;28;20028;-56
2022/06/27 10:54:11;;;;;;;8.57;1.20;;;25.50;96.40;;;;;;5065805;28;20056;-49
2022/06/27 10:56:48;;;;;;;8.95;1.30;;;25.50;96.50;;;;;;5065511;28;20029;-50
2022/06/27 10:59:14;;;;;;;8.02;1.33;;;25.50;96.40;;;;;;5065612;28;20083;-53
2022/06/27 11:01:50;;;;;;;7.32;1.25;;;25.50;96.40;;;;;;5065002;28;20069;-50
2022/06/27 11:04:29;;;;;;;8.75;1.10;;;25.40;96.40;;;;;;5065562;28;20021;-55
2022/06/27 11:07:08;;;;;;;9.85;1.40;;;25.50;96.40;;;;;;5064922;28;20091;-55
2022/06/27 11:09:48;;;;;;;6.88;1.30;;;25.40;96.40;;;;;;5064955;28;20282;-50
2022/06/27 11:12:18;;;;;;;11.98;1.48;;;25.50;96.40;;;;;;5064769;28;20212;-50
2022/06/27 11:14:47;;;;;;;14.02;1.33;;;25.50;96.40;;;;;;5064651;28;20024;-55
2022/06/27 11:17:28;;;;;;;6.35;1.10;;;25.40;96.40;;;;;;5064709;28;20028;-62
2022/06/27 11:20:12;;;;;;;10.93;1.40;;;25.50;96.40;;;;;;5064793;28;20048;-58
2022/06/27 11:22:47;;;;;;;12.25;1.17;;;25.40;96.40;;;;;;5064858;28;20049;-59
2022/06/27 11:25:14;;;;;;;10.43;1.20;;;25.50;96.50;;;;;;5064473;28;20221;-53
2022/06/27 11:27:56;;;;;;;6.57;1.00;;;25.50;96.50;;;;;;5064187;28;20020;-53
2022/06/27 11:33:25;;;;;;;10.60;1.48;;;25.50;96.50;;;;;;5055595;28;20028;-54
2022/06/27 11:35:54;;;;;;;9.02;1.58;;;25.50;96.50;;;;;;5064415;28;20029;-50
2022/06/27 11:38:26;;;;;;;11.23;1.30;;;25.50;96.60;;;;;;5064599;28;20025;-49
2022/06/27 11:41:35;;;;;;;10.68;1.25;;;25.50;96.60;;;;;;5064366;28;20222;-55
2022/06/27 11:44:10;;;;;;;11.85;1.48;;;25.50;96.40;;;;;;5064787;28;20028;-56
2022/06/27 11:46:42;;;;;;;6.28;1.25;;;25.50;96.40;;;;;;5064240;28;20031;-51
2022/06/27 11:49:10;;;;;;;11.87;1.10;;;25.50;96.30;;;;;;5064548;28;20025;-54
2022/06/27 11:51:38;;;;;;;6.72;1.10;;;25.50;96.30;;;;;;5064132;28;20274;-57
2022/06/27 11:54:14;;;;;;;11.25;1.38;;;25.50;96.20;;;;;;5064652;28;20403;-52
2022/06/27 11:56:43;;;;;;;9.60;1.40;;;25.50;96.00;;;;;;5063553;28;20025;-57
2022/06/27 11:59:12;;;;;;;10.10;1.00;;;25.50;96.00;;;;;;5064366;28;20206;-55
2022/06/27 12:01:58;;;;;;;9.15;0.95;;;25.50;96.00;;;;;;5063805;28;20060;-56
2022/06/27 12:04:32;;;;;;;6.00;0.85;;;25.50;95.90;;;;;;5064583;28;20028;-48
2022/06/27 12:07:07;;;;;;;7.60;1.10;;;25.50;95.80;;;;;;5063864;28;20021;-48
2022/06/27 12:09:51;;;;;;;9.25;0.90;;;25.50;95.70;;;;;;5064019;28;20033;-45
2022/06/27 12:12:23;;;;;;;9.50;0.90;;;25.50;95.70;;;;;;5063780;28;20025;-49
2022/06/27 12:14:50;;;;;;;;;;;25.60;95.70;;;;;;5064534;28;20025;-50
2022/06/27 12:17:18;;;;;;;8.98;0.90;;;25.60;95.60;;;;;;5064247;28;19905;-54
2022/06/27 12:19:44;;;;;;;4.50;0.90;;;25.60;95.70;;;;;;5063730;28;20055;-55
2022/06/27 12:22:13;;;;;;;9.60;0.80;;;25.60;95.70;;;;;;5063936;28;20021;-48
2022/06/27 12:24:40;;;;;;;9.70;0.90;;;25.60;96.00;;;;;;5063989;28;20037;-49
2022/06/27 12:27:08;;;;;;;3.92;0.63;;;25.60;95.80;;;;;;5063755;28;20027;-49
2022/06/27 12:29:35;;;;;;;7.10;0.98;;;25.60;95.80;;;;;;5063794;28;20082;-51
2022/06/27 12:32:01;;;;;;;8.68;1.10;;;25.60;95.80;;;;;;5063726;28;20364;-55
2022/06/27 12:34:29;;;;;;;5.88;0.80;;;25.60;95.80;;;;;;5063604;28;20317;-56
2022/06/27 12:36:57;;;;;;;19.90;1.60;;;25.70;95.90;;;;;;5063476;28;20317;-50
2022/06/27 12:39:28;;;;;;;17.48;1.05;;;25.70;95.90;;;;;;5064017;28;20205;-51
2022/06/27 12:41:55;;;;;;;9.60;1.30;;;25.70;95.90;;;;;;5063500;28;20256;-49
2022/06/27 12:44:21;;;;;;;10.18;1.10;;;25.70;96.00;;;;;;5064187;28;20264;-48
2022/06/27 12:46:48;;;;;;;7.93;1.08;;;25.70;95.90;;;;;;5063604;28;20092;-52
2022/06/27 12:49:14;;;;;;;5.65;1.40;;;25.70;95.90;;;;;;5063876;28;20080;-50
2022/06/27 12:51:41;;;;;;;17.95;1.38;;;25.70;95.90;;;;;;5062911;28;20029;-56
2022/06/27 12:54:07;;;;;;;7.80;1.25;;;25.80;95.90;;;;;;5064003;28;20198;-61
2022/06/27 12:56:34;;;;;;;8.35;1.10;;;25.80;95.90;;;;;;5063279;28;20067;-54
2022/06/27 12:59:01;;;;;;;10.35;1.33;;;25.80;96.00;;;;;;5063891;28;20027;-53
2022/06/27 13:01:27;;;;;;;6.90;1.00;;;25.80;95.90;;;;;;5063334;28;20121;-58
2022/06/27 13:03:54;;;;;;;10.48;0.88;;;25.80;96.10;;;;;;5063824;28;20045;-48
2022/06/27 13:06:20;;;;;;;6.45;0.80;;;25.80;96.10;;;;;;5063361;28;20025;-52
2022/06/27 13:08:47;;;;;;;12.70;1.20;;;25.80;96.10;;;;;;5064994;28;20298;-52